Time,TemperatureF,DewpointF,PressureIn,WindDirection,WindDirectionDegrees,WindSpeedMPH,WindSpeedGustMPH,Humidity,HourlyPrecipIn,Conditions,Clouds,dailyrainin,SoftwareType,DateUTC
2013-10-20 00:04:00,48.7,40.8,30.03,NNE,22,0.0,-999.0,74,-99.99,,,0.00,Acu-Link.com,2013-10-20 04:04:00,
2013-10-20 00:19:00,47.8,40.9,30.03,NNE,22,0.0,-999.0,77,-99.99,,,0.00,Acu-Link.com,2013-10-20 04:19:00,
2013-10-20 00:34:00,47.3,40.8,30.03,NNE,22,0.0,-999.0,78,-99.99,,,0.00,Acu-Link.com,2013-10-20 04:34:00,
2013-10-20 00:49:00,46.8,40.3,30.03,SSE,157,0.0,-999.0,78,-99.99,,,0.00,Acu-Link.com,2013-10-20 04:49:00,
2013-10-20 01:04:00,46.0,39.9,30.03,South,180,0.0,-999.0,79,-99.99,,,0.00,Acu-Link.com,2013-10-20 05:04:00,
2013-10-20 01:20:00,45.7,39.9,30.03,South,180,0.0,-999.0,80,-99.99,,,0.00,Acu-Link.com,2013-10-20 05:20:00,
2013-10-20 01:35:00,45.3,40.1,30.03,South,180,0.0,-999.0,82,-99.99,,,0.00,Acu-Link.com,2013-10-20 05:35:00,
2013-10-20 01:50:00,45.0,40.2,30.04,SE,135,0.0,-999.0,83,-99.99,,,0.00,Acu-Link.com,2013-10-20 05:50:00,
2013-10-20 02:05:00,44.4,39.6,30.04,SE,135,0.0,-999.0,83,-99.99,,,0.00,Acu-Link.com,2013-10-20 06:05:00,
2013-10-20 02:20:00,43.9,39.4,30.04,SE,135,0.0,-999.0,84,-99.99,,,0.00,Acu-Link.com,2013-10-20 06:20:00,
2013-10-20 02:35:00,43.7,39.2,30.05,SE,135,0.0,-999.0,84,-99.99,,,0.00,Acu-Link.com,2013-10-20 06:35:00,
2013-10-20 02:51:00,43.5,39.6,30.05,SE,135,0.0,-999.0,86,-99.99,,,0.00,Acu-Link.com,2013-10-20 06:51:00,
2013-10-20 03:06:00,43.2,39.3,30.05,ESE,112,0.0,-999.0,86,-99.99,,,0.00,Acu-Link.com,2013-10-20 07:06:00,
2013-10-20 03:21:00,43.0,39.4,30.05,East,90,0.0,-999.0,87,-99.99,,,0.00,Acu-Link.com,2013-10-20 07:21:00,
2013-10-20 03:36:00,43.0,40.0,30.04,SSE,157,0.0,-999.0,89,-99.99,,,0.00,Acu-Link.com,2013-10-20 07:36:00,
2013-10-20 03:51:00,42.8,39.8,30.05,SSE,157,0.0,-999.0,89,-99.99,,,0.00,Acu-Link.com,2013-10-20 07:51:00,
2013-10-20 04:07:00,42.8,39.8,30.05,SE,135,0.0,-999.0,89,-99.99,,,0.00,Acu-Link.com,2013-10-20 08:07:00,
2013-10-20 04:22:00,42.8,39.8,30.04,SE,135,0.0,-999.0,89,-99.99,,,0.00,Acu-Link.com,2013-10-20 08:22:00,
2013-10-20 04:37:00,42.6,39.6,30.04,SE,135,0.0,-999.0,89,-99.99,,,0.00,Acu-Link.com,2013-10-20 08:37:00,
2013-10-20 04:52:00,42.3,39.3,30.04,ESE,112,0.0,-999.0,89,-99.99,,,0.00,Acu-Link.com,2013-10-20 08:52:00,
2013-10-20 05:07:00,42.1,39.1,30.03,ESE,112,0.0,-999.0,89,-99.99,,,0.00,Acu-Link.com,2013-10-20 09:07:00,
2013-10-20 05:22:00,41.9,38.9,30.04,ESE,112,0.0,-999.0,89,-99.99,,,0.00,Acu-Link.com,2013-10-20 09:22:00,
2013-10-20 05:38:00,41.5,38.5,30.05,SE,135,0.0,-999.0,89,-99.99,,,0.00,Acu-Link.com,2013-10-20 09:38:00,
2013-10-20 05:53:00,41.2,38.2,30.05,SE,135,0.0,-999.0,89,-99.99,,,0.00,Acu-Link.com,2013-10-20 09:53:00,
2013-10-20 06:08:00,41.2,38.2,30.05,SE,135,0.0,-999.0,89,-99.99,,,0.00,Acu-Link.com,2013-10-20 10:08:00,
2013-10-20 06:23:00,41.2,38.2,30.06,South,180,0.0,-999.0,89,-99.99,,,0.00,Acu-Link.com,2013-10-20 10:23:00,
2013-10-20 06:38:00,40.6,37.6,30.07,South,180,0.0,-999.0,89,-99.99,,,0.00,Acu-Link.com,2013-10-20 10:38:00,
2013-10-20 06:53:00,40.3,37.3,30.07,South,180,0.0,-999.0,89,-99.99,,,0.00,Acu-Link.com,2013-10-20 10:53:00,
2013-10-20 07:08:00,40.1,37.1,30.07,South,180,0.0,-999.0,89,-99.99,,,0.00,Acu-Link.com,2013-10-20 11:08:00,
2013-10-20 07:23:00,39.7,36.7,30.08,South,180,0.0,-999.0,89,-99.99,,,0.00,Acu-Link.com,2013-10-20 11:23:00,
2013-10-20 07:38:00,39.7,36.7,30.07,South,180,0.0,-999.0,89,-99.99,,,0.00,Acu-Link.com,2013-10-20 11:38:00,
2013-10-20 07:53:00,39.6,36.6,30.08,South,180,0.0,-999.0,89,-99.99,,,0.00,Acu-Link.com,2013-10-20 11:53:00,
2013-10-20 08:09:00,39.6,36.6,30.08,South,180,0.0,-999.0,89,-99.99,,,0.00,Acu-Link.com,2013-10-20 12:09:00,
2013-10-20 08:24:00,39.9,36.9,30.07,South,180,0.0,-999.0,89,-99.99,,,0.00,Acu-Link.com,2013-10-20 12:24:00,
2013-10-20 08:39:00,40.1,37.1,30.08,South,180,0.0,-999.0,89,-99.99,,,0.00,Acu-Link.com,2013-10-20 12:39:00,
2013-10-20 08:55:00,40.5,37.5,30.08,SE,135,0.0,-999.0,89,-99.99,,,0.00,Acu-Link.com,2013-10-20 12:55:00,
2013-10-20 09:10:00,41.2,38.2,30.09,SE,135,0.0,-999.0,89,-99.99,,,0.00,Acu-Link.com,2013-10-20 13:10:00,
2013-10-20 09:25:00,41.7,38.7,30.09,West,270,0.0,-999.0,89,-99.99,,,0.00,Acu-Link.com,2013-10-20 13:25:00,
2013-10-20 09:40:00,42.3,39.3,30.09,SE,135,0.0,-999.0,89,-99.99,,,0.00,Acu-Link.com,2013-10-20 13:40:00,
2013-10-20 09:55:00,43.2,40.2,30.09,SSW,202,2.2,-999.0,89,-99.99,,,0.00,Acu-Link.com,2013-10-20 13:55:00,
2013-10-20 10:10:00,44.2,41.2,30.09,West,270,1.7,-999.0,89,-99.99,,,0.00,Acu-Link.com,2013-10-20 14:10:00,
2013-10-20 10:25:00,45.0,41.7,30.09,SSE,157,2.2,-999.0,88,-99.99,,,0.00,Acu-Link.com,2013-10-20 14:25:00,
2013-10-20 10:40:00,46.2,41.6,30.09,WSW,247,0.0,-999.0,84,-99.99,,,0.00,Acu-Link.com,2013-10-20 14:40:00,
2013-10-20 10:55:00,49.1,41.5,30.10,NNE,22,1.1,-999.0,75,-99.99,,,0.00,Acu-Link.com,2013-10-20 14:55:00,
2013-10-20 11:11:00,50.9,41.8,30.10,WNW,292,2.7,-999.0,71,-99.99,,,0.00,Acu-Link.com,2013-10-20 15:11:00,
2013-10-20 11:26:00,52.0,42.5,30.10,WNW,292,1.7,-999.0,70,-99.99,,,0.00,Acu-Link.com,2013-10-20 15:26:00,
2013-10-20 11:41:00,54.5,43.0,30.10,NW,315,1.1,-999.0,65,-99.99,,,0.00,Acu-Link.com,2013-10-20 15:41:00,
2013-10-20 11:56:00,55.9,43.1,30.09,West,270,4.7,-999.0,62,-99.99,,,0.00,Acu-Link.com,2013-10-20 15:56:00,
2013-10-20 12:11:00,56.7,42.5,30.09,North,0,2.2,-999.0,59,-99.99,,,0.00,Acu-Link.com,2013-10-20 16:11:00,
2013-10-20 12:26:00,57.6,42.5,30.09,NNW,337,3.2,-999.0,57,-99.99,,,0.00,Acu-Link.com,2013-10-20 16:26:00,
2013-10-20 12:41:00,58.6,42.5,30.09,SSE,157,0.0,-999.0,55,-99.99,,,0.00,Acu-Link.com,2013-10-20 16:41:00,
2013-10-20 12:57:00,59.5,41.9,30.08,SW,225,2.7,-999.0,52,-99.99,,,0.00,Acu-Link.com,2013-10-20 16:57:00,
2013-10-20 13:12:00,59.9,41.7,30.07,WNW,292,1.1,-999.0,51,-99.99,,,0.00,Acu-Link.com,2013-10-20 17:12:00,
2013-10-20 13:27:00,60.6,40.8,30.06,West,270,5.3,-999.0,48,-99.99,,,0.00,Acu-Link.com,2013-10-20 17:27:00,
2013-10-20 13:42:00,62.1,42.7,30.06,NNW,337,1.1,-999.0,49,-99.99,,,0.00,Acu-Link.com,2013-10-20 17:42:00,
2013-10-20 13:57:00,62.2,40.6,30.05,SE,135,0.0,-999.0,45,-99.99,,,0.00,Acu-Link.com,2013-10-20 17:57:00,
2013-10-20 14:12:00,62.6,39.2,30.04,NW,315,3.2,-999.0,42,-99.99,,,0.00,Acu-Link.com,2013-10-20 18:12:00,
2013-10-20 14:27:00,63.7,38.3,30.03,South,180,3.2,-999.0,39,-99.99,,,0.00,Acu-Link.com,2013-10-20 18:27:00,
2013-10-20 14:42:00,65.1,40.2,30.02,WNW,292,1.1,-999.0,40,-99.99,,,0.00,Acu-Link.com,2013-10-20 18:42:00,
2013-10-20 14:57:00,65.1,38.2,30.02,WNW,292,3.7,-999.0,37,-99.99,,,0.00,Acu-Link.com,2013-10-20 18:57:00,
2013-10-20 15:13:00,65.1,38.2,30.02,West,270,3.2,-999.0,37,-99.99,,,0.00,Acu-Link.com,2013-10-20 19:13:00,
2013-10-20 15:28:00,66.7,35.9,30.01,NW,315,2.2,-999.0,32,-99.99,,,0.00,Acu-Link.com,2013-10-20 19:28:00,
2013-10-20 15:43:00,65.3,36.2,30.01,WSW,247,3.2,-999.0,34,-99.99,,,0.00,Acu-Link.com,2013-10-20 19:43:00,
2013-10-20 15:58:00,66.4,35.6,30.01,South,180,2.2,-999.0,32,-99.99,,,0.00,Acu-Link.com,2013-10-20 19:58:00,
2013-10-20 16:13:00,66.6,32.5,30.00,WNW,292,2.7,-999.0,28,-99.99,,,0.00,Acu-Link.com,2013-10-20 20:13:00,
2013-10-20 16:28:00,68.9,31.6,30.00,SSW,202,3.2,-999.0,25,-99.99,,,0.00,Acu-Link.com,2013-10-20 20:28:00,
2013-10-20 16:43:00,66.6,35.0,30.00,NNW,337,2.2,-999.0,31,-99.99,,,0.00,Acu-Link.com,2013-10-20 20:43:00,
2013-10-20 16:58:00,70.9,31.3,30.00,SW,225,0.0,-999.0,23,-99.99,,,0.00,Acu-Link.com,2013-10-20 20:58:00,
2013-10-20 17:13:00,67.5,34.1,30.00,SW,225,1.1,-999.0,29,-99.99,,,0.00,Acu-Link.com,2013-10-20 21:13:00,
2013-10-20 17:29:00,64.4,31.5,30.00,NW,315,0.0,-999.0,29,-99.99,,,0.00,Acu-Link.com,2013-10-20 21:29:00,
2013-10-20 17:44:00,65.3,37.7,30.00,NW,315,0.0,-999.0,36,-99.99,,,0.00,Acu-Link.com,2013-10-20 21:44:00,
2013-10-20 17:59:00,62.6,39.8,30.00,NW,315,0.0,-999.0,43,-99.99,,,0.00,Acu-Link.com,2013-10-20 21:59:00,
2013-10-20 18:14:00,60.3,36.5,30.00,NW,315,0.0,-999.0,41,-99.99,,,0.00,Acu-Link.com,2013-10-20 22:14:00,
2013-10-20 18:29:00,58.1,42.5,30.01,NW,315,0.0,-999.0,56,-99.99,,,0.00,Acu-Link.com,2013-10-20 22:29:00,
2013-10-20 18:44:00,55.9,42.6,30.01,NW,315,0.0,-999.0,61,-99.99,,,0.00,Acu-Link.com,2013-10-20 22:44:00,
2013-10-20 18:59:00,54.3,41.6,30.01,NW,315,0.0,-999.0,62,-99.99,,,0.00,Acu-Link.com,2013-10-20 22:59:00,
2013-10-20 19:14:00,52.5,41.1,30.02,NW,315,0.0,-999.0,65,-99.99,,,0.00,Acu-Link.com,2013-10-20 23:14:00,
2013-10-20 19:29:00,51.3,40.3,30.02,NW,315,0.0,-999.0,66,-99.99,,,0.00,Acu-Link.com,2013-10-20 23:29:00,
2013-10-20 19:45:00,50.0,40.2,30.02,NW,315,0.0,-999.0,69,-99.99,,,0.00,Acu-Link.com,2013-10-20 23:45:00,
2013-10-20 20:00:00,48.7,39.7,30.03,NW,315,0.0,-999.0,71,-99.99,,,0.00,Acu-Link.com,2013-10-21 00:00:00,
2013-10-20 20:15:00,48.0,40.5,30.03,NW,315,0.0,-999.0,75,-99.99,,,0.00,Acu-Link.com,2013-10-21 00:15:00,
2013-10-20 20:30:00,47.1,39.9,30.04,NW,315,0.0,-999.0,76,-99.99,,,0.00,Acu-Link.com,2013-10-21 00:30:00,
2013-10-20 20:45:00,46.4,39.3,30.04,NW,315,0.0,-999.0,76,-99.99,,,0.00,Acu-Link.com,2013-10-21 00:45:00,
2013-10-20 21:00:00,46.2,41.0,30.04,NNW,337,0.0,-999.0,82,-99.99,,,0.00,Acu-Link.com,2013-10-21 01:00:00,
2013-10-20 21:15:00,45.5,39.4,30.05,NNW,337,0.0,-999.0,79,-99.99,,,0.00,Acu-Link.com,2013-10-21 01:15:00,
2013-10-20 21:30:00,45.3,40.4,30.05,NNW,337,0.0,-999.0,83,-99.99,,,0.00,Acu-Link.com,2013-10-21 01:30:00,
2013-10-20 21:45:00,44.8,39.3,30.04,NNW,337,0.0,-999.0,81,-99.99,,,0.00,Acu-Link.com,2013-10-21 01:45:00,
2013-10-20 22:01:00,44.2,39.1,30.05,East,90,0.0,-999.0,82,-99.99,,,0.00,Acu-Link.com,2013-10-21 02:01:00,
2013-10-20 22:16:00,43.9,38.5,30.05,East,90,0.0,-999.0,81,-99.99,,,0.00,Acu-Link.com,2013-10-21 02:16:00,
2013-10-20 22:31:00,43.5,38.4,30.06,East,90,0.0,-999.0,82,-99.99,,,0.00,Acu-Link.com,2013-10-21 02:31:00,
2013-10-20 22:46:00,43.5,39.6,30.06,West,270,0.0,-999.0,86,-99.99,,,0.00,Acu-Link.com,2013-10-21 02:46:00,
2013-10-20 23:01:00,43.0,39.1,30.06,WNW,292,0.0,-999.0,86,-99.99,,,0.00,Acu-Link.com,2013-10-21 03:01:00,
2013-10-20 23:16:00,42.8,38.6,30.06,WNW,292,0.0,-999.0,85,-99.99,,,0.00,Acu-Link.com,2013-10-21 03:16:00,
2013-10-20 23:31:00,42.4,38.2,30.06,WNW,292,0.0,-999.0,85,-99.99,,,0.00,Acu-Link.com,2013-10-21 03:31:00,
2013-10-20 23:46:00,42.3,37.8,30.06,WNW,292,0.0,-999.0,84,-99.99,,,0.00,Acu-Link.com,2013-10-21 03:46:00,